createdAt,value
2022-11-14T04:45:33.970Z,10.70
2022-11-14T04:48:01.051Z,10.70
2022-11-14T04:50:28.047Z,10.80
2022-11-14T04:52:54.996Z,10.60
2022-11-14T04:55:21.927Z,10.90
2022-11-14T04:57:53.192Z,10.80
2022-11-14T05:00:20.262Z,10.70
2022-11-14T05:02:47.193Z,10.80
2022-11-14T05:05:14.197Z,10.80
2022-11-14T05:07:41.604Z,10.80
2022-11-14T05:10:09.301Z,10.90
2022-11-14T05:12:36.264Z,10.90
2022-11-14T05:15:03.354Z,11.00
2022-11-14T05:17:30.288Z,10.90
2022-11-14T05:19:57.221Z,10.90
2022-11-14T05:22:24.203Z,10.80
2022-11-14T05:24:51.142Z,10.80
2022-11-14T05:27:18.077Z,10.80
2022-11-14T05:29:45.004Z,10.80
2022-11-14T05:32:16.058Z,11.00
2022-11-14T05:34:43.472Z,10.90
2022-11-14T05:37:10.479Z,10.90
2022-11-14T05:39:37.406Z,10.80
2022-11-14T05:42:04.549Z,10.80
2022-11-14T05:44:31.592Z,10.70
2022-11-14T05:46:58.559Z,10.70
2022-11-14T05:49:25.539Z,10.70
2022-11-14T05:51:52.511Z,10.70
2022-11-14T05:54:19.444Z,10.70
2022-11-14T05:56:46.408Z,10.70
2022-11-14T05:59:13.347Z,10.70
2022-11-14T06:01:40.333Z,10.70
2022-11-14T06:04:07.397Z,10.60
2022-11-14T06:06:34.400Z,10.70
2022-11-14T06:09:01.457Z,10.60
2022-11-14T06:11:28.435Z,10.70
2022-11-14T06:13:55.396Z,10.90
2022-11-14T06:16:22.361Z,10.70
2022-11-14T06:18:52.119Z,10.80
2022-11-14T06:21:20.315Z,10.90
2022-11-14T06:23:47.791Z,10.90
2022-11-14T06:26:23.783Z,10.90
2022-11-14T06:28:51.342Z,10.90
2022-11-14T06:31:19.275Z,10.90
2022-11-14T06:33:46.257Z,10.90
2022-11-14T06:36:13.458Z,10.90
2022-11-14T06:38:41.310Z,11.00
2022-11-14T06:41:18.332Z,11.00
2022-11-14T06:43:46.274Z,10.80
2022-11-14T06:46:14.917Z,10.90
2022-11-14T06:48:42.286Z,10.90
2022-11-14T06:51:10.029Z,10.80
2022-11-14T06:53:37.489Z,10.80
2022-11-14T06:56:07.473Z,11.00
2022-11-14T06:58:35.869Z,10.80
2022-11-14T07:01:11.386Z,10.80
2022-11-14T07:03:38.512Z,10.80
2022-11-14T07:06:05.823Z,10.80
2022-11-14T07:08:33.654Z,10.80
2022-11-14T07:11:03.740Z,10.80
2022-11-14T07:13:31.396Z,10.80
2022-11-14T07:15:58.397Z,10.80
2022-11-14T07:18:25.500Z,10.80
2022-11-14T07:21:02.649Z,10.70
2022-11-14T07:23:30.588Z,10.80
2022-11-14T07:26:06.881Z,10.80
2022-11-14T07:28:34.371Z,10.80
2022-11-14T07:31:04.815Z,10.80
2022-11-14T07:33:31.853Z,10.80
2022-11-14T07:35:59.156Z,10.90
2022-11-14T07:38:26.216Z,10.90
2022-11-14T07:40:59.351Z,10.90
2022-11-14T07:43:27.143Z,11.00
2022-11-14T07:45:54.233Z,11.00
2022-11-14T07:48:22.413Z,11.00
2022-11-14T07:50:49.368Z,11.00
2022-11-14T07:53:17.720Z,11.00
2022-11-14T07:55:44.940Z,11.00
2022-11-14T07:58:11.933Z,11.10
2022-11-14T08:00:38.882Z,11.10
2022-11-14T08:03:06.822Z,11.10
2022-11-14T08:05:33.940Z,11.40
2022-11-14T08:08:00.917Z,11.20
2022-11-14T08:10:32.446Z,11.20
2022-11-14T08:13:29.901Z,11.20
2022-11-14T08:15:48.625Z,11.20
2022-11-14T08:18:15.625Z,11.40
2022-11-14T08:20:43.941Z,11.30
2022-11-14T08:23:11.204Z,11.20
2022-11-14T08:25:38.124Z,11.30
2022-11-14T08:28:05.068Z,11.50
2022-11-14T08:30:32.057Z,11.20
2022-11-14T08:33:02.167Z,11.20
2022-11-14T08:35:29.529Z,11.20
2022-11-14T08:37:56.528Z,11.20
2022-11-14T08:40:23.564Z,11.20
2022-11-14T08:42:50.487Z,11.20
2022-11-14T08:45:17.478Z,11.50
2022-11-14T08:47:50.629Z,11.20
2022-11-14T08:50:17.792Z,11.20
2022-11-14T08:52:49.010Z,11.20
2022-11-14T08:55:16.001Z,11.20
2022-11-14T08:57:48.101Z,11.20
2022-11-14T09:00:16.502Z,11.20
2022-11-14T09:02:43.552Z,11.20
2022-11-14T09:05:11.066Z,11.30
2022-11-14T09:07:38.120Z,11.30
2022-11-14T09:10:05.317Z,11.40
2022-11-14T09:12:32.544Z,11.40
2022-11-14T09:14:59.537Z,11.40
2022-11-14T09:17:26.504Z,11.40
2022-11-14T09:19:54.009Z,11.40
2022-11-14T09:22:21.056Z,11.40
2022-11-14T09:24:49.391Z,11.40
2022-11-14T09:27:17.185Z,11.40
2022-11-14T09:29:44.548Z,11.40
2022-11-14T09:32:11.472Z,11.40
2022-11-14T09:34:42.860Z,11.30
2022-11-14T09:37:09.800Z,11.30
2022-11-14T09:39:40.479Z,11.30
2022-11-14T09:42:26.084Z,11.30
2022-11-14T09:44:58.029Z,11.20
2022-11-14T09:47:29.515Z,11.20
2022-11-14T09:50:01.416Z,11.20
2022-11-14T09:52:35.240Z,11.30
2022-11-14T09:55:05.192Z,11.30
2022-11-14T09:57:32.127Z,11.30
2022-11-14T09:59:59.106Z,11.30
2022-11-14T10:02:35.167Z,11.30
2022-11-14T10:05:20.660Z,11.30
2022-11-14T10:07:50.404Z,11.30
2022-11-14T10:10:23.190Z,11.30
2022-11-14T10:12:53.029Z,11.30
2022-11-14T10:15:23.082Z,11.30
2022-11-14T10:18:16.101Z,11.30
2022-11-14T10:20:47.352Z,11.30
2022-11-14T10:23:14.528Z,11.40
2022-11-14T10:25:44.281Z,11.40
2022-11-14T10:28:17.664Z,11.40
2022-11-14T10:30:54.149Z,11.40
2022-11-14T10:33:30.077Z,11.50
2022-11-14T10:35:59.879Z,11.50
2022-11-14T10:38:26.875Z,11.60
2022-11-14T10:40:55.069Z,11.60
2022-11-14T10:43:28.208Z,11.60
2022-11-14T10:46:07.648Z,11.60
2022-11-14T10:48:34.577Z,11.60
2022-11-14T10:51:01.525Z,11.60
2022-11-14T10:53:36.503Z,11.60
2022-11-14T10:56:05.292Z,11.60
2022-11-14T10:58:42.189Z,11.60
2022-11-14T11:01:32.838Z,11.60
2022-11-14T11:04:11.103Z,11.70
2022-11-14T11:06:38.101Z,11.70
2022-11-14T11:09:27.679Z,11.70
2022-11-14T11:11:57.969Z,11.70
2022-11-14T11:14:25.549Z,11.70
2022-11-14T11:17:07.617Z,11.70
2022-11-14T11:19:34.599Z,11.70
2022-11-14T11:22:01.524Z,11.70
2022-11-14T11:24:35.816Z,11.70
2022-11-14T11:27:15.251Z,11.70
2022-11-14T11:29:42.249Z,11.70
2022-11-14T11:32:09.948Z,11.80
2022-11-14T11:34:36.958Z,11.70
2022-11-14T11:37:03.968Z,11.70
2022-11-14T11:39:33.271Z,11.80
2022-11-14T11:42:09.286Z,11.80
2022-11-14T11:44:41.661Z,11.90
2022-11-14T11:47:11.100Z,11.90
2022-11-14T11:49:42.902Z,12.00
2022-11-14T11:52:16.367Z,12.10
2022-11-14T11:54:48.781Z,12.10
2022-11-14T11:57:21.781Z,12.20
2022-11-14T11:59:51.264Z,12.20
2022-11-14T12:02:24.686Z,12.30
2022-11-14T12:04:52.666Z,12.30
2022-11-14T12:07:21.128Z,12.30
2022-11-14T12:10:09.751Z,12.40
2022-11-14T12:12:58.707Z,12.40
2022-11-14T12:15:31.100Z,12.40
2022-11-14T12:18:07.028Z,12.40
2022-11-14T12:20:46.082Z,12.50
2022-11-14T12:23:13.141Z,12.50
2022-11-14T12:25:46.858Z,12.50
2022-11-14T12:28:25.689Z,12.60
2022-11-14T12:30:56.281Z,12.60
2022-11-14T12:33:34.255Z,12.60
2022-11-14T12:36:06.289Z,12.70
2022-11-14T12:38:44.843Z,12.70
2022-11-14T12:41:12.317Z,12.70
2022-11-14T12:43:41.650Z,12.70
2022-11-14T12:46:11.518Z,12.70
2022-11-14T12:48:39.402Z,12.80
2022-11-14T12:51:26.767Z,12.80
2022-11-14T12:53:54.750Z,12.80
2022-11-14T12:56:41.192Z,12.90
2022-11-14T12:59:14.175Z,12.90
2022-11-14T13:01:53.501Z,12.80
2022-11-14T13:04:23.346Z,12.90
2022-11-14T13:07:00.392Z,12.90
2022-11-14T13:09:32.109Z,12.90
2022-11-14T13:12:17.976Z,12.90
2022-11-14T13:15:06.977Z,12.90
2022-11-14T13:17:52.810Z,13.00
2022-11-14T13:20:43.749Z,13.00
2022-11-14T13:23:25.892Z,13.00
2022-11-14T13:26:11.156Z,13.00
2022-11-14T13:28:38.263Z,13.00
2022-11-14T13:31:17.488Z,13.00
2022-11-14T13:33:49.910Z,13.00
2022-11-14T13:36:22.858Z,13.10
2022-11-14T13:38:50.554Z,13.10
2022-11-14T13:41:24.195Z,13.10
2022-11-14T13:44:18.021Z,13.20
2022-11-14T13:46:54.690Z,13.10
2022-11-14T13:49:40.296Z,13.20
2022-11-14T13:52:07.333Z,13.00
2022-11-14T13:54:34.387Z,13.00
2022-11-14T13:57:19.857Z,13.10
2022-11-14T14:00:02.523Z,13.10
2022-11-14T14:02:47.644Z,13.10
2022-11-14T14:05:32.841Z,13.20
2022-11-14T14:08:02.664Z,13.20
2022-11-14T14:10:42.807Z,13.20
2022-11-14T14:13:21.692Z,13.20
2022-11-14T14:16:04.032Z,13.30
2022-11-14T14:18:36.775Z,13.30
2022-11-14T14:21:18.819Z,13.30
2022-11-14T14:23:51.880Z,13.30
2022-11-14T14:26:18.917Z,13.30
2022-11-14T14:28:53.311Z,13.40
2022-11-14T14:31:20.644Z,13.40
2022-11-14T14:33:48.557Z,13.40
2022-11-14T14:36:19.967Z,13.40
2022-11-14T14:38:47.495Z,13.40
2022-11-14T14:41:16.056Z,13.40
2022-11-14T14:43:43.846Z,13.40
2022-11-14T14:46:10.837Z,13.40
2022-11-14T14:48:40.339Z,13.40
2022-11-14T14:51:12.525Z,13.50
2022-11-14T14:53:39.607Z,13.50
2022-11-14T14:56:19.712Z,13.50
2022-11-14T14:58:46.691Z,13.40
2022-11-14T15:01:20.899Z,13.30
2022-11-14T15:03:49.013Z,13.40
2022-11-14T15:06:42.586Z,13.30
2022-11-14T15:09:13.897Z,13.30
2022-11-14T15:11:42.324Z,13.40
2022-11-14T15:14:13.221Z,13.40
2022-11-14T15:16:40.301Z,13.40
2022-11-14T15:19:11.469Z,13.40
2022-11-14T15:21:38.419Z,13.40
2022-11-14T15:24:17.396Z,13.40
2022-11-14T15:26:45.546Z,13.40
2022-11-14T15:29:15.309Z,13.30
2022-11-14T15:31:45.429Z,13.30
2022-11-14T15:34:30.609Z,13.30
2022-11-14T15:37:18.852Z,13.40
2022-11-14T15:39:46.539Z,13.30
2022-11-14T15:42:19.515Z,13.30
2022-11-14T15:44:47.074Z,13.30
2022-11-14T15:47:22.175Z,13.30
2022-11-14T15:50:12.479Z,13.30
2022-11-14T15:52:39.429Z,13.30
2022-11-14T15:55:17.021Z,13.30
2022-11-14T15:57:48.419Z,13.30
2022-11-14T16:00:19.644Z,13.30
2022-11-14T16:02:56.862Z,13.30
2022-11-14T16:05:26.270Z,13.30
2022-11-14T16:07:53.525Z,13.30
2022-11-14T16:10:30.131Z,13.30
2022-11-14T16:12:57.140Z,13.30
2022-11-14T16:15:24.126Z,13.30
2022-11-14T16:17:51.144Z,13.30
2022-11-14T16:20:22.476Z,13.30
2022-11-14T16:22:49.885Z,13.30
2022-11-14T16:25:18.044Z,13.30
2022-11-14T16:27:45.396Z,13.30
2022-11-14T16:30:13.377Z,13.30
2022-11-14T16:32:41.220Z,13.30
2022-11-14T16:35:15.564Z,13.30
2022-11-14T16:37:42.864Z,13.30
2022-11-14T16:40:14.684Z,13.20
2022-11-14T16:42:41.643Z,13.20
2022-11-14T16:45:09.172Z,13.10
2022-11-14T16:47:36.786Z,13.10
2022-11-14T16:50:04.073Z,13.20
2022-11-14T16:52:31.017Z,13.20
2022-11-14T16:54:57.971Z,13.10
2022-11-14T16:57:25.020Z,13.10
2022-11-14T17:02:24.486Z,12.70
2022-11-14T17:04:51.473Z,13.00
2022-11-14T17:07:22.716Z,12.90
2022-11-14T17:09:49.988Z,12.90
2022-11-14T17:12:16.943Z,12.90
2022-11-14T17:14:43.892Z,13.00
2022-11-14T17:17:10.821Z,13.00
2022-11-14T17:19:45.502Z,13.00
2022-11-14T17:22:13.459Z,13.00
2022-11-14T17:24:40.732Z,13.00
2022-11-14T17:27:08.367Z,12.90
2022-11-14T17:29:35.648Z,12.90
2022-11-14T17:32:04.105Z,12.80
2022-11-14T17:34:31.977Z,12.80
2022-11-14T17:36:58.962Z,12.80
2022-11-14T17:39:26.216Z,12.70
2022-11-14T17:41:53.253Z,12.70
2022-11-14T17:44:20.200Z,12.70
2022-11-14T17:46:47.497Z,12.70
2022-11-14T17:49:14.421Z,12.60
2022-11-14T17:51:41.346Z,12.70
2022-11-14T17:54:08.935Z,12.60
2022-11-14T17:56:36.714Z,12.60
2022-11-14T17:59:05.901Z,12.70
2022-11-14T18:01:32.904Z,12.50
2022-11-14T18:04:05.495Z,12.50
2022-11-14T18:06:33.249Z,12.60
2022-11-14T18:09:04.775Z,12.60
2022-11-14T18:11:31.994Z,12.90
2022-11-14T18:13:58.995Z,12.70
2022-11-14T18:16:31.334Z,12.60
2022-11-14T18:19:06.631Z,12.60
2022-11-14T18:21:33.557Z,12.50
2022-11-14T18:24:00.557Z,12.40
2022-11-14T18:26:28.601Z,12.40
2022-11-14T18:28:59.092Z,12.40
2022-11-14T18:31:26.175Z,12.30
2022-11-14T18:33:53.325Z,12.30
2022-11-14T18:36:20.650Z,12.40
2022-11-14T18:38:47.702Z,12.60
2022-11-14T18:41:16.738Z,12.30
2022-11-14T18:43:46.917Z,12.30
2022-11-14T18:46:15.472Z,12.20
2022-11-14T18:48:43.851Z,12.20
2022-11-14T18:51:12.108Z,12.10
2022-11-14T18:53:39.183Z,12.10
2022-11-14T18:56:07.297Z,12.10
2022-11-14T18:58:35.969Z,12.10
2022-11-14T19:01:10.483Z,12.10
2022-11-14T19:03:37.707Z,12.10
2022-11-14T19:06:05.890Z,12.00
2022-11-14T19:08:33.025Z,12.00
2022-11-14T19:11:00.744Z,12.00
2022-11-14T19:13:28.084Z,12.00
2022-11-14T19:15:55.286Z,12.00
2022-11-14T19:18:22.377Z,12.00
2022-11-14T19:20:55.873Z,11.90
2022-11-14T19:23:22.877Z,11.90
2022-11-14T19:25:49.841Z,11.90
2022-11-14T19:28:16.792Z,11.90
2022-11-14T19:30:43.806Z,11.80
2022-11-14T19:33:10.740Z,11.80
2022-11-14T19:35:39.224Z,11.80
2022-11-14T19:38:06.180Z,11.80
2022-11-14T19:40:33.156Z,11.70
2022-11-14T19:43:01.814Z,11.70
2022-11-14T19:45:28.789Z,11.70
2022-11-14T19:47:55.717Z,11.90
2022-11-14T19:50:24.596Z,11.50
2022-11-14T19:52:52.413Z,11.50
2022-11-14T19:55:19.365Z,11.80
2022-11-14T19:57:46.322Z,11.50
2022-11-14T20:00:13.577Z,11.40
2022-11-14T20:02:40.879Z,11.40
2022-11-14T20:05:08.075Z,11.30
2022-11-14T20:07:35.446Z,11.30
2022-11-14T20:10:03.509Z,11.20
2022-11-14T20:12:31.721Z,11.20
2022-11-14T20:14:58.715Z,11.20
2022-11-14T20:17:25.746Z,11.20
2022-11-14T20:19:52.806Z,11.20
2022-11-14T20:22:19.816Z,11.10
2022-11-14T20:24:46.856Z,11.10
2022-11-14T20:27:13.864Z,11.10
2022-11-14T20:29:40.868Z,11.00
2022-11-14T20:32:11.583Z,11.00
2022-11-14T20:34:41.500Z,11.00
2022-11-14T20:37:11.333Z,10.90
2022-11-14T20:39:38.853Z,10.90
2022-11-14T20:42:05.811Z,10.90
2022-11-14T20:44:32.760Z,10.80
2022-11-14T20:46:59.739Z,10.80
2022-11-14T20:49:26.735Z,10.70
2022-11-14T20:51:53.706Z,10.70
2022-11-14T20:54:20.678Z,10.70
2022-11-14T20:56:47.734Z,10.60
2022-11-14T20:59:14.912Z,10.60
2022-11-14T21:01:43.954Z,10.60
2022-11-14T21:04:11.324Z,10.50
2022-11-14T21:06:38.873Z,10.50
2022-11-14T21:09:05.853Z,10.50
2022-11-14T21:11:32.824Z,10.40
2022-11-14T21:13:59.874Z,10.40
2022-11-14T21:16:31.496Z,10.20
2022-11-14T21:18:59.133Z,10.20
2022-11-14T21:21:30.280Z,10.30
2022-11-14T21:23:57.421Z,10.20
2022-11-14T21:26:25.720Z,10.30
2022-11-14T21:28:54.034Z,10.30
2022-11-14T21:31:25.053Z,10.30
2022-11-14T21:33:54.061Z,10.30
2022-11-14T21:39:08.004Z,10.20
2022-11-14T21:41:34.965Z,10.50
2022-11-14T21:44:02.600Z,10.30
2022-11-14T21:46:29.548Z,10.50
2022-11-14T21:48:57.333Z,10.30
2022-11-14T21:51:27.985Z,10.30
2022-11-14T21:53:56.205Z,10.30
2022-11-14T21:56:24.848Z,10.30
2022-11-14T21:59:12.247Z,10.30
2022-11-14T22:01:58.189Z,10.30
2022-11-14T22:04:25.256Z,10.30
2022-11-14T22:06:52.460Z,10.30
2022-11-14T22:09:19.471Z,10.20
2022-11-14T22:11:46.498Z,10.20
2022-11-14T22:14:13.503Z,10.20
2022-11-14T22:16:40.433Z,10.30
2022-11-14T22:19:07.436Z,10.30
2022-11-14T22:21:34.444Z,10.40
2022-11-14T22:24:01.462Z,10.30
2022-11-14T22:26:28.428Z,10.30
2022-11-14T22:28:55.370Z,10.30
2022-11-14T22:31:23.282Z,10.30
2022-11-14T22:33:51.442Z,10.20
2022-11-14T22:36:19.552Z,10.20
2022-11-14T22:38:46.541Z,10.20
2022-11-14T22:41:20.637Z,10.20
2022-11-14T22:43:48.030Z,10.20
2022-11-14T22:46:19.590Z,10.20
2022-11-14T22:48:47.096Z,10.20
2022-11-14T22:51:15.137Z,10.20
2022-11-14T22:53:42.261Z,10.10
2022-11-14T22:56:10.953Z,10.10
2022-11-14T22:58:38.787Z,10.10
2022-11-14T23:01:17.829Z,10.00
2022-11-14T23:03:45.256Z,10.00
2022-11-14T23:06:13.668Z,9.90
2022-11-14T23:08:41.014Z,9.90
2022-11-14T23:11:09.753Z,9.80
2022-11-14T23:13:37.684Z,9.80
2022-11-14T23:16:04.943Z,9.70
2022-11-14T23:18:31.899Z,9.70
2022-11-14T23:21:28.323Z,9.80
2022-11-14T23:23:56.216Z,9.80
2022-11-14T23:26:23.588Z,9.80
2022-11-14T23:28:50.695Z,9.70
2022-11-14T23:31:20.591Z,9.70
2022-11-14T23:33:48.271Z,9.70
2022-11-14T23:36:15.229Z,9.70
2022-11-14T23:38:42.377Z,9.70
2022-11-14T23:41:14.485Z,9.70
2022-11-14T23:43:41.397Z,9.80
2022-11-14T23:46:08.390Z,9.70
2022-11-14T23:48:35.305Z,9.60
2022-11-14T23:51:02.241Z,9.60
2022-11-14T23:53:29.817Z,9.60
2022-11-14T23:55:57.963Z,9.60
2022-11-14T23:58:25.623Z,9.50
